HESG 020500Z 34006KT CAVOK 29/14 Q1011 NOSIG
From batch tds/metars/production/2022/10/2/h05_m24_metars.cache.csv.gz
Observed at (about 2 hours ago)
Identifier HESG
HESG 020400Z 35006KT CAVOK 26/13 Q1010 NOSIG
From batch tds/metars/production/2022/10/2/h04_m25_metars.cache.csv.gz
Observed at (about 3 hours ago)
Identifier HESG
HESG 020300Z 36005KT CAVOK 27/13 Q1009 NOSIG
From batch tds/metars/production/2022/10/2/h03_m55_metars.cache.csv.gz
Observed at (about 4 hours ago)
Identifier HESG
HESG 020100Z 28006KT CAVOK 28/08 Q1009 NOSIG
From batch tds/metars/production/2022/10/2/h01_m29_metars.cache.csv.gz
Observed at (about 6 hours ago)
Identifier HESG
HESG 020000Z 27007KT CAVOK 29/08 Q1009 NOSIG
From batch tds/metars/production/2022/10/2/h00_m21_metars.cache.csv.gz
Observed at (about 7 hours ago)
Identifier HESG
HESG 012300Z 32010KT CAVOK 32/08 Q1009 NOSIG
From batch tds/metars/production/2022/10/1/h23_m23_metars.cache.csv.gz
Observed at (about 8 hours ago)
Identifier HESG
HESG 012200Z 33009KT CAVOK 33/08 Q1009 NOSIG
From batch tds/metars/production/2022/10/1/h22_m22_metars.cache.csv.gz
Observed at (about 9 hours ago)
Identifier HESG
HESG 012100Z 32010KT CAVOK 33/08 Q1010 NOSIG
From batch tds/metars/production/2022/10/1/h21_m29_metars.cache.csv.gz
Observed at (about 10 hours ago)
Identifier HESG
HESG 012000Z 32008KT CAVOK 32/07 Q1010 NOSIG
From batch tds/metars/production/2022/10/1/h20_m27_metars.cache.csv.gz
Observed at (about 11 hours ago)
Identifier HESG
HESG 011900Z 31008KT CAVOK 33/08 Q1009 NOSIG
From batch tds/metars/production/2022/10/1/h19_m51_metars.cache.csv.gz
Observed at (about 12 hours ago)
Identifier HESG
HESG 011800Z 33009KT CAVOK 35/09 Q1009 NOSIG
From batch tds/metars/production/2022/10/1/h18_m51_metars.cache.csv.gz
Observed at (about 13 hours ago)
Identifier HESG
HESG 011700Z 33008KT CAVOK 38/05 Q1008 NOSIG
From batch tds/metars/production/2022/10/1/h17_m24_metars.cache.csv.gz
Observed at (about 14 hours ago)
Identifier HESG
HESG 011600Z 34007KT CAVOK 40/06 Q1007 NOSIG
From batch tds/metars/production/2022/10/1/h16_m29_metars.cache.csv.gz
Observed at (about 15 hours ago)
Identifier HESG
HESG 011500Z 32008KT CAVOK 41/06 Q1008 NOSIG
From batch tds/metars/production/2022/10/1/h15_m59_metars.cache.csv.gz
Observed at (about 16 hours ago)
Identifier HESG
HESG 011400Z 27003KT CAVOK 41/08 Q1008 NOSIG
From batch tds/metars/production/2022/10/1/h14_m22_metars.cache.csv.gz
Observed at (about 17 hours ago)
Identifier HESG
HESG 011300Z 28003KT CAVOK 42/09 Q1009 NOSIG
From batch tds/metars/production/2022/10/1/h13_m52_metars.cache.csv.gz
Observed at (about 18 hours ago)
Identifier HESG
HESG 011000Z 16003KT CAVOK 39/11 Q1011 NOSIG
From batch tds/metars/production/2022/10/1/h10_m25_metars.cache.csv.gz
Observed at (about 21 hours ago)
Identifier HESG
HESG 010800Z 33007KT CAVOK 34/12 Q1012 NOSIG
From batch tds/metars/production/2022/10/1/h08_m29_metars.cache.csv.gz
Observed at (about 23 hours ago)
Identifier HESG
HESG 010700Z 35008KT CAVOK 32/13 Q1012 NOSIG
From batch tds/metars/production/2022/10/1/h07_m29_metars.cache.csv.gz
Observed at (about 24 hours ago)
Identifier HESG
HESG 010600Z 34008KT CAVOK 30/13 Q1012 NOSIG
From batch tds/metars/production/2022/10/1/h06_m55_metars.cache.csv.gz
Observed at (1 day ago)
Identifier HESG
HESG 010400Z 31009KT CAVOK 28/11 Q1011 NOSIG
From batch tds/metars/production/2022/10/1/h04_m47_metars.cache.csv.gz
Observed at (1 day ago)
Identifier HESG
HESG 010300Z 29008KT CAVOK 28/10 Q1011 NOSIG
From batch tds/metars/production/2022/10/1/h03_m52_metars.cache.csv.gz
Observed at (1 day ago)
Identifier HESG
HESG 010200Z 27008KT CAVOK 28/09 Q1010 NOSIG
From batch tds/metars/production/2022/10/1/h02_m24_metars.cache.csv.gz
Observed at (1 day ago)
Identifier HESG
HESG 302200Z 29005KT CAVOK 32/07 Q1009 NOSIG
From batch tds/metars/production/2022/9/30/h22_m28_metars.cache.csv.gz
Observed at (1 day ago)
Identifier HESG
HESG 302000Z 32006KT CAVOK 33/10 Q1009 NOSIG
From batch tds/metars/production/2022/9/30/h20_m24_metars.cache.csv.gz
Observed at (1 day ago)
Identifier HESG
HESG 301900Z 32006KT CAVOK 34/10 Q1009 NOSIG
From batch tds/metars/production/2022/9/30/h19_m27_metars.cache.csv.gz
Observed at (1 day ago)
Identifier HESG
HESG 301800Z 01005KT CAVOK 35/09 Q1008 NOSIG
From batch tds/metars/production/2022/9/30/h18_m54_metars.cache.csv.gz
Observed at (1 day ago)
Identifier HESG
HESG 301700Z 35006KT CAVOK 38/07 Q1007 NOSIG
From batch tds/metars/production/2022/9/30/h17_m49_metars.cache.csv.gz
Observed at (1 day ago)
Identifier HESG
HESG 301600Z 03005KT CAVOK 40/06 Q1007 NOSIG
From batch tds/metars/production/2022/9/30/h16_m52_metars.cache.csv.gz
Observed at (1 day ago)
Identifier HESG
HESG 301500Z 08004KT CAVOK 42/06 Q1007 NOSIG
From batch tds/metars/production/2022/9/30/h15_m24_metars.cache.csv.gz
Observed at (1 day ago)
Identifier HESG
HESG 301400Z 14004KT CAVOK 42/08 Q1007 NOSIG
From batch tds/metars/production/2022/9/30/h14_m27_metars.cache.csv.gz
Observed at (1 day ago)
Identifier HESG
HESG 301300Z 12003KT CAVOK 42/08 Q1007 NOSIG
From batch tds/metars/production/2022/9/30/h13_m59_metars.cache.csv.gz
Observed at (1 day ago)
Identifier HESG
HESG 301200Z 09004KT CAVOK 41/09 Q1008 NOSIG
From batch tds/metars/production/2022/9/30/h12_m59_metars.cache.csv.gz
Observed at (2 days ago)
Identifier HESG
HESG 301100Z 32004KT CAVOK 40/09 Q1009 NOSIG
From batch tds/metars/production/2022/9/30/h11_m59_metars.cache.csv.gz
Observed at (2 days ago)
Identifier HESG
HESG 301000Z 31005KT CAVOK 39/09 Q1009 NOSIG
From batch tds/metars/production/2022/9/30/h10_m20_metars.cache.csv.gz
Observed at (2 days ago)
Identifier HESG
HESG 292300Z 27006KT CAVOK 29/06 Q1007
From batch tds/metars/production/2022/9/29/h23_m29_metars.cache.csv.gz
Observed at (2 days ago)
Identifier HESG
HESG 292000Z 29004KT CAVOK 33/07 Q1008 NOSIG
From batch tds/metars/production/2022/9/29/h20_m23_metars.cache.csv.gz
Observed at (2 days ago)
Identifier HESG
HESG 291900Z 31004KT CAVOK 34/07 Q1007 NOSIG
From batch tds/metars/production/2022/9/29/h19_m59_metars.cache.csv.gz
Observed at (2 days ago)
Identifier HESG
HESG 291700Z 03004KT CAVOK 37/05 Q1007 NOSIG
From batch tds/metars/production/2022/9/29/h17_m22_metars.cache.csv.gz
Observed at (3 days ago)
Identifier HESG
HESG 291600Z 06004KT CAVOK 38/03 Q1006 NOSIG
From batch tds/metars/production/2022/9/29/h16_m24_metars.cache.csv.gz
Observed at (3 days ago)
Identifier HESG
HESG 291500Z 12003KT CAVOK 39/02 Q1006 NOSIG
From batch tds/metars/production/2022/9/29/h15_m29_metars.cache.csv.gz
Observed at (3 days ago)
Identifier HESG
HESG 291400Z 03005KT CAVOK 39/03 Q1006 NOSIG
From batch tds/metars/production/2022/9/29/h14_m29_metars.cache.csv.gz
Observed at (3 days ago)
Identifier HESG
HESG 291300Z 01005KT CAVOK 40/04 Q1006 NOSIG
From batch tds/metars/production/2022/9/29/h13_m29_metars.cache.csv.gz
Observed at (3 days ago)
Identifier HESG
HESG 291200Z 35004KT CAVOK 39/05 Q1007 NOSIG
From batch tds/metars/production/2022/9/29/h12_m19_metars.cache.csv.gz
Observed at (3 days ago)
Identifier HESG
HESG 291000Z 35008KT CAVOK 36/09 Q1009 NOSIG
From batch tds/metars/production/2022/9/29/h10_m24_metars.cache.csv.gz
Observed at (3 days ago)
Identifier HESG
HESG 290900Z 34007KT CAVOK 34/08 Q1009 NOSIG
From batch tds/metars/production/2022/9/29/h09_m59_metars.cache.csv.gz
Observed at (3 days ago)
Identifier HESG
HESG 290700Z 32006KT CAVOK 31/08 Q1009 NOSIG
From batch tds/metars/production/2022/9/29/h07_m57_metars.cache.csv.gz
Observed at (3 days ago)
Identifier HESG
HESG 290500Z 31006KT CAVOK 28/08 Q1009 NOSIG
From batch tds/metars/production/2022/9/29/h05_m29_metars.cache.csv.gz
Observed at (3 days ago)
Identifier HESG
HESG 290300Z 28006KT CAVOK 26/08 Q1008 NOSIG
From batch tds/metars/production/2022/9/29/h03_m29_metars.cache.csv.gz
Observed at (3 days ago)
Identifier HESG
HESG 290200Z 03004KT CAVOK 27/11 Q1009 NOSIG
From batch tds/metars/production/2022/9/29/h02_m29_metars.cache.csv.gz
Observed at (3 days ago)
Identifier HESG
talk